sensor_id;sensor_type;location;lat;lon;timestamp;pressure;altitude;pressure_sealevel;temperature;humidity
31538;BME280;18147;51.952;6.146;2023-02-28T00:00:20;103068.59;;;0.39;100.00
31538;BME280;18147;51.952;6.146;2023-02-28T00:02:46;103065.44;;;0.62;100.00
31538;BME280;18147;51.952;6.146;2023-02-28T00:05:14;103065.50;;;0.66;100.00
31538;BME280;18147;51.952;6.146;2023-02-28T00:07:41;103063.97;;;0.85;100.00
31538;BME280;18147;51.952;6.146;2023-02-28T00:10:09;103063.00;;;0.75;100.00
31538;BME280;18147;51.952;6.146;2023-02-28T00:12:36;103066.31;;;0.61;100.00
31538;BME280;18147;51.952;6.146;2023-02-28T00:15:05;103066.94;;;0.44;100.00
31538;BME280;18147;51.952;6.146;2023-02-28T00:17:30;103058.53;;;0.68;100.00
31538;BME280;18147;51.952;6.146;2023-02-28T00:19:56;103059.38;;;0.66;100.00
31538;BME280;18147;51.952;6.146;2023-02-28T00:22:22;103054.81;;;0.52;100.00
31538;BME280;18147;51.952;6.146;2023-02-28T00:24:47;103057.22;;;0.39;100.00
31538;BME280;18147;51.952;6.146;2023-02-28T00:27:13;103055.28;;;0.89;100.00
31538;BME280;18147;51.952;6.146;2023-02-28T00:29:39;103054.34;;;0.83;100.00
31538;BME280;18147;51.952;6.146;2023-02-28T00:32:05;103056.16;;;0.90;100.00
31538;BME280;18147;51.952;6.146;2023-02-28T00:34:31;103049.44;;;1.12;100.00
31538;BME280;18147;51.952;6.146;2023-02-28T00:37:06;103055.66;;;1.20;100.00
31538;BME280;18147;51.952;6.146;2023-02-28T00:39:33;103053.88;;;1.17;100.00
31538;BME280;18147;51.952;6.146;2023-02-28T00:41:59;103057.78;;;0.78;100.00
31538;BME280;18147;51.952;6.146;2023-02-28T00:44:25;103064.91;;;0.86;100.00
31538;BME280;18147;51.952;6.146;2023-02-28T00:46:50;103066.66;;;0.87;100.00
31538;BME280;18147;51.952;6.146;2023-02-28T00:49:17;103062.16;;;0.78;100.00
31538;BME280;18147;51.952;6.146;2023-02-28T00:51:42;103060.47;;;0.82;100.00
31538;BME280;18147;51.952;6.146;2023-02-28T00:54:08;103056.84;;;0.75;100.00
31538;BME280;18147;51.952;6.146;2023-02-28T00:56:33;103055.13;;;0.75;100.00
31538;BME280;18147;51.952;6.146;2023-02-28T00:58:59;103055.78;;;0.59;100.00
31538;BME280;18147;51.952;6.146;2023-02-28T01:01:24;103057.78;;;0.77;100.00
31538;BME280;18147;51.952;6.146;2023-02-28T01:03:50;103050.78;;;0.79;100.00
31538;BME280;18147;51.952;6.146;2023-02-28T01:06:15;103045.59;;;0.84;100.00
31538;BME280;18147;51.952;6.146;2023-02-28T01:08:41;103055.41;;;1.00;100.00
31538;BME280;18147;51.952;6.146;2023-02-28T01:11:08;103050.06;;;0.91;100.00
31538;BME280;18147;51.952;6.146;2023-02-28T01:13:33;103052.72;;;0.94;100.00
31538;BME280;18147;51.952;6.146;2023-02-28T01:15:59;103055.47;;;1.03;100.00
31538;BME280;18147;51.952;6.146;2023-02-28T01:18:24;103056.22;;;0.94;100.00
31538;BME280;18147;51.952;6.146;2023-02-28T01:20:50;103067.66;;;0.96;100.00
31538;BME280;18147;51.952;6.146;2023-02-28T01:23:19;103072.09;;;1.03;100.00
31538;BME280;18147;51.952;6.146;2023-02-28T01:25:45;103062.69;;;1.24;100.00
31538;BME280;18147;51.952;6.146;2023-02-28T01:28:11;103072.28;;;1.20;100.00
31538;BME280;18147;51.952;6.146;2023-02-28T01:30:36;103072.38;;;1.26;100.00
31538;BME280;18147;51.952;6.146;2023-02-28T01:33:02;103062.72;;;1.25;100.00
31538;BME280;18147;51.952;6.146;2023-02-28T01:35:27;103061.88;;;1.28;100.00
31538;BME280;18147;51.952;6.146;2023-02-28T01:37:53;103060.81;;;1.11;100.00
31538;BME280;18147;51.952;6.146;2023-02-28T01:40:19;103057.44;;;1.24;100.00
31538;BME280;18147;51.952;6.146;2023-02-28T01:42:44;103058.69;;;1.57;100.00
31538;BME280;18147;51.952;6.146;2023-02-28T01:45:24;103057.75;;;1.53;100.00
31538;BME280;18147;51.952;6.146;2023-02-28T01:47:54;103052.69;;;1.74;100.00
31538;BME280;18147;51.952;6.146;2023-02-28T01:50:26;103050.81;;;1.60;100.00
31538;BME280;18147;51.952;6.146;2023-02-28T01:52:55;103060.06;;;1.22;100.00
31538;BME280;18147;51.952;6.146;2023-02-28T01:55:23;103051.47;;;1.40;100.00
31538;BME280;18147;51.952;6.146;2023-02-28T01:57:52;103045.44;;;1.49;100.00
31538;BME280;18147;51.952;6.146;2023-02-28T02:00:23;103047.00;;;1.28;100.00
31538;BME280;18147;51.952;6.146;2023-02-28T02:02:55;103063.69;;;1.31;100.00
31538;BME280;18147;51.952;6.146;2023-02-28T02:05:24;103048.75;;;1.29;100.00
31538;BME280;18147;51.952;6.146;2023-02-28T02:07:54;103059.41;;;1.45;100.00
31538;BME280;18147;51.952;6.146;2023-02-28T02:13:03;103055.13;;;1.51;100.00
31538;BME280;18147;51.952;6.146;2023-02-28T02:16:11;103052.28;;;1.33;100.00
31538;BME280;18147;51.952;6.146;2023-02-28T02:18:47;103055.13;;;1.51;100.00
31538;BME280;18147;51.952;6.146;2023-02-28T02:48:02;103042.91;;;1.58;100.00
31538;BME280;18147;51.952;6.146;2023-02-28T02:50:34;103047.19;;;1.50;100.00
31538;BME280;18147;51.952;6.146;2023-02-28T02:53:03;103048.97;;;1.51;100.00
31538;BME280;18147;51.952;6.146;2023-02-28T02:55:33;103041.97;;;1.53;100.00
31538;BME280;18147;51.952;6.146;2023-02-28T02:58:07;103042.16;;;1.71;100.00
31538;BME280;18147;51.952;6.146;2023-02-28T03:00:38;103050.06;;;1.74;100.00
31538;BME280;18147;51.952;6.146;2023-02-28T03:03:05;103056.19;;;1.72;100.00
31538;BME280;18147;51.952;6.146;2023-02-28T03:05:47;103055.16;;;1.56;100.00
31538;BME280;18147;51.952;6.146;2023-02-28T03:08:13;103059.47;;;1.48;100.00
31538;BME280;18147;51.952;6.146;2023-02-28T03:10:44;103046.63;;;1.81;100.00
31538;BME280;18147;51.952;6.146;2023-02-28T03:13:32;103051.69;;;1.60;100.00
31538;BME280;18147;51.952;6.146;2023-02-28T03:25:13;103049.28;;;1.85;100.00
31538;BME280;18147;51.952;6.146;2023-02-28T03:27:55;103038.03;;;2.01;100.00
31538;BME280;18147;51.952;6.146;2023-02-28T03:33:18;103041.38;;;1.81;100.00
31538;BME280;18147;51.952;6.146;2023-02-28T03:35:54;103039.53;;;1.71;100.00
31538;BME280;18147;51.952;6.146;2023-02-28T03:38:51;103043.56;;;1.36;100.00
31538;BME280;18147;51.952;6.146;2023-02-28T03:41:25;103048.13;;;1.55;100.00
31538;BME280;18147;51.952;6.146;2023-02-28T03:44:03;103042.69;;;1.37;100.00
31538;BME280;18147;51.952;6.146;2023-02-28T03:46:33;103039.31;;;1.50;100.00
31538;BME280;18147;51.952;6.146;2023-02-28T03:49:32;103042.03;;;1.58;100.00
31538;BME280;18147;51.952;6.146;2023-02-28T03:52:02;103039.59;;;1.77;100.00
31538;BME280;18147;51.952;6.146;2023-02-28T03:54:32;103041.34;;;1.78;100.00
31538;BME280;18147;51.952;6.146;2023-02-28T03:57:06;103033.34;;;1.66;100.00
31538;BME280;18147;51.952;6.146;2023-02-28T03:59:46;103038.53;;;1.60;100.00
31538;BME280;18147;51.952;6.146;2023-02-28T04:02:13;103039.34;;;1.51;100.00
31538;BME280;18147;51.952;6.146;2023-02-28T04:04:38;103033.34;;;1.68;100.00
31538;BME280;18147;51.952;6.146;2023-02-28T04:07:11;103036.69;;;1.50;100.00
31538;BME280;18147;51.952;6.146;2023-02-28T04:09:36;103034.06;;;1.48;100.00
31538;BME280;18147;51.952;6.146;2023-02-28T04:12:02;103026.22;;;1.54;100.00
31538;BME280;18147;51.952;6.146;2023-02-28T04:14:27;103034.94;;;1.49;100.00
31538;BME280;18147;51.952;6.146;2023-02-28T04:16:53;103034.97;;;1.55;100.00
31538;BME280;18147;51.952;6.146;2023-02-28T04:19:18;103034.13;;;1.56;100.00
31538;BME280;18147;51.952;6.146;2023-02-28T04:21:47;103033.19;;;1.49;100.00
31538;BME280;18147;51.952;6.146;2023-02-28T04:24:18;103027.97;;;1.55;100.00
31538;BME280;18147;51.952;6.146;2023-02-28T04:26:46;103036.72;;;1.51;100.00
31538;BME280;18147;51.952;6.146;2023-02-28T04:29:14;103038.28;;;1.31;100.00
31538;BME280;18147;51.952;6.146;2023-02-28T04:31:42;103042.75;;;1.44;100.00
31538;BME280;18147;51.952;6.146;2023-02-28T04:34:08;103036.69;;;1.47;100.00
31538;BME280;18147;51.952;6.146;2023-02-28T04:36:33;103024.59;;;1.66;100.00
31538;BME280;18147;51.952;6.146;2023-02-28T04:38:59;103034.19;;;1.64;100.00
31538;BME280;18147;51.952;6.146;2023-02-28T04:41:24;103041.06;;;1.46;100.00
31538;BME280;18147;51.952;6.146;2023-02-28T04:43:53;103041.94;;;1.47;100.00
31538;BME280;18147;51.952;6.146;2023-02-28T04:46:18;103041.13;;;1.55;100.00
31538;BME280;18147;51.952;6.146;2023-02-28T04:48:44;103039.09;;;1.30;100.00
31538;BME280;18147;51.952;6.146;2023-02-28T04:51:13;103046.22;;;1.37;100.00
31538;BME280;18147;51.952;6.146;2023-02-28T04:53:40;103032.47;;;1.66;100.00
31538;BME280;18147;51.952;6.146;2023-02-28T04:56:07;103043.59;;;1.37;100.00
31538;BME280;18147;51.952;6.146;2023-02-28T04:58:33;103043.69;;;1.46;100.00
31538;BME280;18147;51.952;6.146;2023-02-28T05:01:15;103051.63;;;1.51;100.00
31538;BME280;18147;51.952;6.146;2023-02-28T05:03:43;103047.97;;;1.37;100.00
31538;BME280;18147;51.952;6.146;2023-02-28T05:06:10;103053.22;;;1.40;100.00
31538;BME280;18147;51.952;6.146;2023-02-28T05:08:36;103048.75;;;1.29;100.00
31538;BME280;18147;51.952;6.146;2023-02-28T05:11:02;103046.16;;;1.34;100.00
31538;BME280;18147;51.952;6.146;2023-02-28T05:13:28;103054.25;;;1.52;100.00
31538;BME280;18147;51.952;6.146;2023-02-28T05:15:54;103058.38;;;1.29;100.00
31538;BME280;18147;51.952;6.146;2023-02-28T05:18:20;103060.03;;;1.19;100.00
31538;BME280;18147;51.952;6.146;2023-02-28T05:20:45;103046.16;;;1.34;100.00
31538;BME280;18147;51.952;6.146;2023-02-28T05:23:12;103047.97;;;1.37;100.00
31538;BME280;18147;51.952;6.146;2023-02-28T05:25:38;103049.72;;;1.39;100.00
31538;BME280;18147;51.952;6.146;2023-02-28T05:28:04;103052.53;;;1.58;100.00
31538;BME280;18147;51.952;6.146;2023-02-28T05:30:29;103054.19;;;1.48;100.00
31538;BME280;18147;51.952;6.146;2023-02-28T05:32:57;103050.59;;;1.38;100.00
31538;BME280;18147;51.952;6.146;2023-02-28T05:35:23;103055.78;;;1.31;100.00
31538;BME280;18147;51.952;6.146;2023-02-28T05:37:49;103064.44;;;1.23;100.00
31538;BME280;18147;51.952;6.146;2023-02-28T05:40:14;103062.81;;;1.33;100.00
31538;BME280;18147;51.952;6.146;2023-02-28T05:42:40;103070.53;;;1.19;100.00
31538;BME280;18147;51.952;6.146;2023-02-28T05:45:07;103073.16;;;1.16;100.00
31538;BME280;18147;51.952;6.146;2023-02-28T05:47:34;103072.09;;;1.02;100.00
31538;BME280;18147;51.952;6.146;2023-02-28T05:50:00;103065.31;;;1.22;100.00
31538;BME280;18147;51.952;6.146;2023-02-28T05:52:27;103066.22;;;1.24;100.00
31538;BME280;18147;51.952;6.146;2023-02-28T05:54:52;103068.03;;;1.30;100.00
31538;BME280;18147;51.952;6.146;2023-02-28T05:57:18;103074.66;;;0.97;100.00
31538;BME280;18147;51.952;6.146;2023-02-28T05:59:43;103078.13;;;0.95;100.00
31538;BME280;18147;51.952;6.146;2023-02-28T06:02:13;103080.91;;;1.07;100.00
31538;BME280;18147;51.952;6.146;2023-02-28T06:04:39;103076.44;;;1.00;100.00
31538;BME280;18147;51.952;6.146;2023-02-28T06:07:06;103079.09;;;1.01;100.00
31538;BME280;18147;51.952;6.146;2023-02-28T06:09:32;103072.56;;;1.43;100.00
31538;BME280;18147;51.952;6.146;2023-02-28T06:11:59;103074.22;;;1.35;100.00
31538;BME280;18147;51.952;6.146;2023-02-28T06:14:25;103088.84;;;1.13;100.00
31538;BME280;18147;51.952;6.146;2023-02-28T06:16:50;103087.44;;;1.43;100.00
31538;BME280;18147;51.952;6.146;2023-02-28T06:19:16;103094.41;;;1.38;100.00
31538;BME280;18147;51.952;6.146;2023-02-28T06:21:43;103097.84;;;1.31;100.00
31538;BME280;18147;51.952;6.146;2023-02-28T06:24:08;103095.50;;;1.58;100.00
31538;BME280;18147;51.952;6.146;2023-02-28T06:26:34;103098.31;;;1.79;100.00
31538;BME280;18147;51.952;6.146;2023-02-28T06:29:00;103099.03;;;1.62;100.00
31538;BME280;18147;51.952;6.146;2023-02-28T06:31:26;103101.59;;;1.55;100.00
31538;BME280;18147;51.952;6.146;2023-02-28T06:33:55;103096.47;;;1.69;100.00
31538;BME280;18147;51.952;6.146;2023-02-28T06:36:22;103104.91;;;1.39;100.00
31538;BME280;18147;51.952;6.146;2023-02-28T06:38:47;103105.84;;;1.43;100.00
31538;BME280;18147;51.952;6.146;2023-02-28T06:41:23;103103.38;;;1.60;100.00
31538;BME280;18147;51.952;6.146;2023-02-28T06:43:49;103099.78;;;1.50;100.00
31538;BME280;18147;51.952;6.146;2023-02-28T06:46:15;103102.56;;;1.65;100.00
31538;BME280;18147;51.952;6.146;2023-02-28T06:48:42;103105.38;;;1.82;100.00
31538;BME280;18147;51.952;6.146;2023-02-28T06:51:14;103107.97;;;1.80;100.00
31538;BME280;18147;51.952;6.146;2023-02-28T06:53:40;103113.41;;;1.96;100.00
31538;BME280;18147;51.952;6.146;2023-02-28T06:56:08;103101.22;;;2.07;100.00
31538;BME280;18147;51.952;6.146;2023-02-28T06:58:34;103107.28;;;1.98;100.00
31538;BME280;18147;51.952;6.146;2023-02-28T07:01:00;103113.59;;;2.19;100.00
31538;BME280;18147;51.952;6.146;2023-02-28T07:03:26;103114.25;;;1.93;100.00
31538;BME280;18147;51.952;6.146;2023-02-28T07:05:51;103118.81;;;2.14;100.00
31538;BME280;18147;51.952;6.146;2023-02-28T07:08:17;103121.22;;;1.90;100.00
31538;BME280;18147;51.952;6.146;2023-02-28T07:10:42;103111.97;;;2.36;100.00
31538;BME280;18147;51.952;6.146;2023-02-28T07:13:08;103121.00;;;2.73;100.00
31538;BME280;18147;51.952;6.146;2023-02-28T07:15:35;103101.88;;;3.17;100.00
31538;BME280;18147;51.952;6.146;2023-02-28T07:18:01;103108.16;;;3.59;98.23
31538;BME280;18147;51.952;6.146;2023-02-28T07:20:26;103106.44;;;3.73;92.21
31538;BME280;18147;51.952;6.146;2023-02-28T07:22:52;103100.25;;;3.62;89.38
31538;BME280;18147;51.952;6.146;2023-02-28T07:25:24;103110.84;;;4.15;88.53
31538;BME280;18147;51.952;6.146;2023-02-28T07:27:50;103114.31;;;3.70;87.35
31538;BME280;18147;51.952;6.146;2023-02-28T07:30:15;103115.19;;;3.66;86.78
31538;BME280;18147;51.952;6.146;2023-02-28T07:32:41;103113.47;;;4.29;85.64
31538;BME280;18147;51.952;6.146;2023-02-28T07:35:07;103118.75;;;4.35;82.43
31538;BME280;18147;51.952;6.146;2023-02-28T07:37:32;103121.41;;;4.29;80.38
31538;BME280;18147;51.952;6.146;2023-02-28T07:40:04;103124.94;;;4.10;79.62
31538;BME280;18147;51.952;6.146;2023-02-28T07:42:31;103128.44;;;4.15;81.47
31538;BME280;18147;51.952;6.146;2023-02-28T07:44:57;103111.69;;;4.45;80.72
31538;BME280;18147;51.952;6.146;2023-02-28T07:47:24;103115.16;;;4.81;76.95
31538;BME280;18147;51.952;6.146;2023-02-28T07:49:49;103113.94;;;5.57;73.82
31538;BME280;18147;51.952;6.146;2023-02-28T07:52:15;103114.94;;;5.37;71.31
31538;BME280;18147;51.952;6.146;2023-02-28T07:54:40;103118.41;;;5.45;72.12
31538;BME280;18147;51.952;6.146;2023-02-28T07:57:06;103115.22;;;4.59;67.89
31538;BME280;18147;51.952;6.146;2023-02-28T07:59:31;103114.31;;;4.68;65.84
31538;BME280;18147;51.952;6.146;2023-02-28T08:01:57;103111.75;;;4.07;64.54
31538;BME280;18147;51.952;6.146;2023-02-28T08:04:23;103118.72;;;3.57;64.51
31538;BME280;18147;51.952;6.146;2023-02-28T08:06:49;103124.88;;;3.66;64.04
31538;BME280;18147;51.952;6.146;2023-02-28T08:09:17;103117.91;;;4.07;62.91
31538;BME280;18147;51.952;6.146;2023-02-28T08:11:42;103122.28;;;4.42;63.81
31538;BME280;18147;51.952;6.146;2023-02-28T08:14:08;103124.88;;;3.81;64.07
31538;BME280;18147;51.952;6.146;2023-02-28T08:16:33;103127.56;;;3.95;63.66
31538;BME280;18147;51.952;6.146;2023-02-28T08:18:59;103120.47;;;3.64;63.50
31538;BME280;18147;51.952;6.146;2023-02-28T08:21:24;103123.16;;;3.78;64.65
31538;BME280;18147;51.952;6.146;2023-02-28T08:23:51;103124.88;;;3.62;62.77
31538;BME280;18147;51.952;6.146;2023-02-28T08:26:17;103125.78;;;3.90;62.63
31538;BME280;18147;51.952;6.146;2023-02-28T08:28:43;103124.00;;;3.70;61.53
31538;BME280;18147;51.952;6.146;2023-02-28T08:31:14;103123.16;;;3.89;60.76
31538;BME280;18147;51.952;6.146;2023-02-28T08:33:41;103131.09;;;4.15;61.62
31538;BME280;18147;51.952;6.146;2023-02-28T08:36:07;103127.59;;;4.22;60.67
31538;BME280;18147;51.952;6.146;2023-02-28T08:38:33;103124.03;;;3.83;60.55
31538;BME280;18147;51.952;6.146;2023-02-28T08:41:01;103128.44;;;3.83;59.59
31538;BME280;18147;51.952;6.146;2023-02-28T08:43:28;103128.44;;;4.09;59.69
31538;BME280;18147;51.952;6.146;2023-02-28T08:45:56;103124.91;;;3.78;60.39
31538;BME280;18147;51.952;6.146;2023-02-28T08:48:23;103120.50;;;3.72;59.91
31538;BME280;18147;51.952;6.146;2023-02-28T08:51:03;103111.72;;;3.99;60.17
31538;BME280;18147;51.952;6.146;2023-02-28T08:53:29;103124.94;;;4.04;58.89
31538;BME280;18147;51.952;6.146;2023-02-28T08:56:04;103119.63;;;4.11;59.23
31538;BME280;18147;51.952;6.146;2023-02-28T08:58:30;103120.53;;;4.04;58.79
31538;BME280;18147;51.952;6.146;2023-02-28T09:00:56;103117.88;;;4.01;57.96
31538;BME280;18147;51.952;6.146;2023-02-28T09:03:22;103115.25;;;4.12;58.48
31538;BME280;18147;51.952;6.146;2023-02-28T09:05:58;103118.75;;;4.22;59.62
31538;BME280;18147;51.952;6.146;2023-02-28T09:08:25;103125.78;;;3.90;58.77
31538;BME280;18147;51.952;6.146;2023-02-28T09:10:51;103120.53;;;4.30;58.35
31538;BME280;18147;51.952;6.146;2023-02-28T09:13:17;103119.66;;;4.28;55.02
31538;BME280;18147;51.952;6.146;2023-02-28T09:15:43;103114.34;;;4.36;57.04
31538;BME280;18147;51.952;6.146;2023-02-28T09:18:09;103126.69;;;4.29;56.60
31538;BME280;18147;51.952;6.146;2023-02-28T09:20:37;103119.66;;;4.37;55.81
31538;BME280;18147;51.952;6.146;2023-02-28T09:23:03;103118.69;;;4.77;52.90
31538;BME280;18147;51.952;6.146;2023-02-28T09:25:28;103112.53;;;4.73;51.67
31538;BME280;18147;51.952;6.146;2023-02-28T09:27:54;103109.09;;;4.10;50.59
31538;BME280;18147;51.952;6.146;2023-02-28T09:30:19;103115.22;;;4.62;52.15
31538;BME280;18147;51.952;6.146;2023-02-28T09:32:45;103108.19;;;4.54;50.88
31538;BME280;18147;51.952;6.146;2023-02-28T09:35:18;103104.63;;;4.52;48.78
31538;BME280;18147;51.952;6.146;2023-02-28T09:37:44;103103.78;;;4.30;49.09
31538;BME280;18147;51.952;6.146;2023-02-28T09:40:10;103106.38;;;4.71;50.11
31538;BME280;18147;51.952;6.146;2023-02-28T09:42:37;103102.03;;;4.39;48.55
31538;BME280;18147;51.952;6.146;2023-02-28T09:45:10;103103.78;;;4.48;49.26
31538;BME280;18147;51.952;6.146;2023-02-28T09:47:44;103102.88;;;4.64;49.70
31538;BME280;18147;51.952;6.146;2023-02-28T09:50:31;103107.16;;;5.01;50.59
31538;BME280;18147;51.952;6.146;2023-02-28T09:52:59;103099.25;;;4.90;49.22
31538;BME280;18147;51.952;6.146;2023-02-28T09:56:01;103101.13;;;4.51;49.10
31538;BME280;18147;51.952;6.146;2023-02-28T09:58:37;103098.34;;;5.02;50.07
31538;BME280;18147;51.952;6.146;2023-02-28T10:01:25;103102.84;;;4.74;50.18
31538;BME280;18147;51.952;6.146;2023-02-28T10:04:39;103103.53;;;5.22;51.20
31538;BME280;18147;51.952;6.146;2023-02-28T10:06:48;103103.47;;;5.38;51.82
31538;BME280;18147;51.952;6.146;2023-02-28T10:11:44;103101.94;;;4.84;49.97
31538;BME280;18147;51.952;6.146;2023-02-28T10:14:23;103104.47;;;5.14;49.63
31538;BME280;18147;51.952;6.146;2023-02-28T10:16:59;103100.91;;;5.23;49.92
31538;BME280;18147;51.952;6.146;2023-02-28T10:19:41;103098.28;;;5.15;49.06
31538;BME280;18147;51.952;6.146;2023-02-28T10:22:34;103095.59;;;5.26;51.50
31538;BME280;18147;51.952;6.146;2023-02-28T10:25:17;103093.88;;;5.14;47.82
31538;BME280;18147;51.952;6.146;2023-02-28T10:27:43;103094.81;;;5.03;48.00
31538;BME280;18147;51.952;6.146;2023-02-28T10:30:10;103087.50;;;5.51;49.11
31538;BME280;18147;51.952;6.146;2023-02-28T10:32:38;103096.34;;;5.50;49.42
31538;BME280;18147;51.952;6.146;2023-02-28T10:35:14;103083.47;;;4.78;48.06
31538;BME280;18147;51.952;6.146;2023-02-28T10:37:48;103093.88;;;5.11;49.82
31538;BME280;18147;51.952;6.146;2023-02-28T10:42:57;103077.91;;;5.37;48.22
31538;BME280;18147;51.952;6.146;2023-02-28T10:45:24;103079.69;;;5.34;48.06
31538;BME280;18147;51.952;6.146;2023-02-28T10:47:54;103082.25;;;5.48;47.62
31538;BME280;18147;51.952;6.146;2023-02-28T10:50:26;103096.38;;;5.48;48.61
31538;BME280;18147;51.952;6.146;2023-02-28T10:52:53;103081.19;;;5.75;48.52
31538;BME280;18147;51.952;6.146;2023-02-28T10:55:24;103082.34;;;5.32;47.42
31538;BME280;18147;51.952;6.146;2023-02-28T10:57:53;103082.19;;;5.55;48.48
31538;BME280;18147;51.952;6.146;2023-02-28T11:00:24;103079.50;;;5.61;48.18
31538;BME280;18147;51.952;6.146;2023-02-28T11:02:51;103085.72;;;5.56;48.23
31538;BME280;18147;51.952;6.146;2023-02-28T11:05:31;103073.31;;;5.64;49.31
31538;BME280;18147;51.952;6.146;2023-02-28T11:10:30;103060.75;;;5.90;48.06
31538;BME280;18147;51.952;6.146;2023-02-28T11:13:00;103063.53;;;5.75;47.77
31538;BME280;18147;51.952;6.146;2023-02-28T11:15:29;103063.25;;;6.15;47.20
31538;BME280;18147;51.952;6.146;2023-02-28T11:17:58;103071.53;;;5.66;47.38
31538;BME280;18147;51.952;6.146;2023-02-28T11:20:28;103054.59;;;5.94;48.68
31538;BME280;18147;51.952;6.146;2023-02-28T11:22:55;103066.25;;;5.67;46.44
31538;BME280;18147;51.952;6.146;2023-02-28T11:25:28;103063.53;;;5.72;47.82
31538;BME280;18147;51.952;6.146;2023-02-28T11:28:00;103053.94;;;5.63;47.35
31538;BME280;18147;51.952;6.146;2023-02-28T11:30:40;103062.91;;;5.38;47.43
31538;BME280;18147;51.952;6.146;2023-02-28T11:33:26;103056.09;;;6.25;48.03
31538;BME280;18147;51.952;6.146;2023-02-28T11:35:57;103061.53;;;6.06;47.41
31538;BME280;18147;51.952;6.146;2023-02-28T11:38:24;103069.81;;;5.63;47.23
31538;BME280;18147;51.952;6.146;2023-02-28T11:48:43;103049.56;;;5.55;46.50
31538;BME280;18147;51.952;6.146;2023-02-28T11:51:24;103051.19;;;5.76;47.05
31538;BME280;18147;51.952;6.146;2023-02-28T11:54:08;103053.84;;;5.71;47.33
31538;BME280;18147;51.952;6.146;2023-02-28T11:56:52;103045.78;;;5.86;47.81
31538;BME280;18147;51.952;6.146;2023-02-28T12:02:20;103042.88;;;6.20;46.08
31538;BME280;18147;51.952;6.146;2023-02-28T12:05:24;103042.00;;;6.22;47.10
31538;BME280;18147;51.952;6.146;2023-02-28T12:13:46;103036.06;;;5.91;46.97
31538;BME280;18147;51.952;6.146;2023-02-28T12:16:22;103026.16;;;6.15;48.00
31538;BME280;18147;51.952;6.146;2023-02-28T12:24:49;103019.06;;;6.18;48.42
31538;BME280;18147;51.952;6.146;2023-02-28T12:27:19;103014.03;;;5.85;46.44
31538;BME280;18147;51.952;6.146;2023-02-28T12:29:51;103004.91;;;6.19;47.76
31538;BME280;18147;51.952;6.146;2023-02-28T12:32:26;103012.09;;;6.08;48.58
31538;BME280;18147;51.952;6.146;2023-02-28T12:34:57;103008.19;;;6.44;50.16
31538;BME280;18147;51.952;6.146;2023-02-28T12:37:38;102994.47;;;6.81;48.48
31538;BME280;18147;51.952;6.146;2023-02-28T12:40:13;102999.09;;;6.65;48.35
31538;BME280;18147;51.952;6.146;2023-02-28T12:42:43;102981.16;;;6.12;45.42
31538;BME280;18147;51.952;6.146;2023-02-28T12:45:23;102988.41;;;6.73;47.81
31538;BME280;18147;51.952;6.146;2023-02-28T12:47:54;102991.91;;;5.98;45.24
31538;BME280;18147;51.952;6.146;2023-02-28T12:50:22;102978.34;;;6.29;47.10
31538;BME280;18147;51.952;6.146;2023-02-28T12:59:01;102976.66;;;6.17;46.82
31538;BME280;18147;51.952;6.146;2023-02-28T13:01:35;102970.25;;;6.39;46.87
31538;BME280;18147;51.952;6.146;2023-02-28T13:10:18;102963.72;;;6.66;49.32
31538;BME280;18147;51.952;6.146;2023-02-28T13:12:51;102962.97;;;6.57;47.74
31538;BME280;18147;51.952;6.146;2023-02-28T13:15:26;102975.09;;;6.76;46.73
31538;BME280;18147;51.952;6.146;2023-02-28T13:17:58;102955.16;;;6.46;45.04
31538;BME280;18147;51.952;6.146;2023-02-28T13:20:34;102960.91;;;6.08;47.68
31538;BME280;18147;51.952;6.146;2023-02-28T13:23:00;102960.84;;;6.11;46.23
31538;BME280;18147;51.952;6.146;2023-02-28T13:28:01;102957.94;;;6.35;48.28
31538;BME280;18147;51.952;6.146;2023-02-28T13:33:36;102950.84;;;6.37;46.22
31538;BME280;18147;51.952;6.146;2023-02-28T13:44:23;102952.78;;;6.23;45.62
31538;BME280;18147;51.952;6.146;2023-02-28T13:51:49;102946.25;;;6.53;46.68
31538;BME280;18147;51.952;6.146;2023-02-28T13:57:20;102960.69;;;6.26;47.99
31538;BME280;18147;51.952;6.146;2023-02-28T14:00:07;102951.94;;;6.19;47.96
31538;BME280;18147;51.952;6.146;2023-02-28T14:05:21;102948.31;;;6.27;48.49
31538;BME280;18147;51.952;6.146;2023-02-28T14:07:53;102937.78;;;6.20;48.07
31538;BME280;18147;51.952;6.146;2023-02-28T14:10:26;102940.59;;;6.07;47.37
31538;BME280;18147;51.952;6.146;2023-02-28T14:13:01;102941.25;;;6.26;48.02
31538;BME280;18147;51.952;6.146;2023-02-28T14:17:56;102927.19;;;6.23;48.72
31538;BME280;18147;51.952;6.146;2023-02-28T14:20:26;102933.50;;;6.10;47.67
31538;BME280;18147;51.952;6.146;2023-02-28T14:25:52;102930.03;;;6.05;48.16
31538;BME280;18147;51.952;6.146;2023-02-28T14:31:24;102925.44;;;6.22;48.51
31538;BME280;18147;51.952;6.146;2023-02-28T14:36:44;102917.53;;;6.18;46.99
31538;BME280;18147;51.952;6.146;2023-02-28T14:39:19;102918.22;;;6.34;47.34
31538;BME280;18147;51.952;6.146;2023-02-28T14:41:46;102919.03;;;6.39;47.37
31538;BME280;18147;51.952;6.146;2023-02-28T14:44:19;102918.44;;;6.15;47.04
31538;BME280;18147;51.952;6.146;2023-02-28T14:46:48;102927.19;;;6.20;48.03
31538;BME280;18147;51.952;6.146;2023-02-28T14:49:21;102921.91;;;6.20;46.20
31538;BME280;18147;51.952;6.146;2023-02-28T14:51:50;102922.78;;;6.22;47.89
31538;BME280;18147;51.952;6.146;2023-02-28T14:54:26;102926.31;;;6.23;49.08
31538;BME280;18147;51.952;6.146;2023-02-28T14:56:52;102920.78;;;6.40;47.92
31538;BME280;18147;51.952;6.146;2023-02-28T14:59:30;102918.94;;;6.46;48.31
31538;BME280;18147;51.952;6.146;2023-02-28T15:02:25;102918.53;;;6.06;48.11
31538;BME280;18147;51.952;6.146;2023-02-28T15:04:59;102916.69;;;6.14;47.79
31538;BME280;18147;51.952;6.146;2023-02-28T15:07:26;102920.03;;;6.27;47.91